createdAt,value
2019-02-27T00:00:24.295Z,88
2019-02-27T00:05:24.252Z,88
2019-02-27T00:10:24.254Z,88
2019-02-27T00:15:24.273Z,88
2019-02-27T00:20:24.311Z,88
2019-02-27T00:25:24.260Z,88
2019-02-27T00:30:24.305Z,88
2019-02-27T00:35:24.312Z,88
2019-02-27T00:40:24.278Z,88
2019-02-27T00:45:24.281Z,88
2019-02-27T00:50:24.289Z,88
2019-02-27T00:55:24.325Z,88
2019-02-27T01:00:24.282Z,88
2019-02-27T01:05:24.321Z,88
2019-02-27T01:10:24.337Z,88
2019-02-27T01:15:24.253Z,88
2019-02-27T01:20:24.303Z,88
2019-02-27T01:25:24.265Z,88
2019-02-27T01:30:24.908Z,88
2019-02-27T01:35:24.365Z,88
2019-02-27T01:40:24.295Z,88
2019-02-27T01:45:24.306Z,88
2019-02-27T01:50:24.314Z,88
2019-02-27T01:55:24.320Z,88
2019-02-27T02:00:24.273Z,88
2019-02-27T02:05:27.082Z,88
2019-02-27T02:10:27.948Z,88
2019-02-27T02:15:27.060Z,88
2019-02-27T02:20:26.967Z,88
2019-02-27T02:25:25.055Z,88
2019-02-27T02:30:29.131Z,88
2019-02-27T02:35:24.364Z,88
2019-02-27T02:40:24.305Z,88
2019-02-27T02:45:24.338Z,88
2019-02-27T02:50:24.333Z,88
2019-02-27T02:55:24.370Z,88
2019-02-27T03:00:24.371Z,88
2019-02-27T03:05:24.536Z,88
2019-02-27T03:10:24.306Z,88
2019-02-27T03:15:28.360Z,88
2019-02-27T03:20:24.387Z,88
2019-02-27T03:25:24.343Z,88
2019-02-27T03:30:33.561Z,88
2019-02-27T03:35:28.331Z,88
2019-02-27T03:40:24.394Z,88
2019-02-27T03:45:30.586Z,87
2019-02-27T03:50:24.390Z,87
2019-02-27T03:55:24.357Z,87
2019-02-27T04:00:24.385Z,87
2019-02-27T04:05:24.413Z,87
2019-02-27T04:10:25.869Z,87
2019-02-27T04:15:24.389Z,87
2019-02-27T04:20:24.385Z,87
2019-02-27T04:25:24.423Z,87
2019-02-27T04:30:24.347Z,87
2019-02-27T04:35:24.408Z,87
2019-02-27T04:40:24.425Z,87
2019-02-27T04:45:24.346Z,87
2019-02-27T04:50:24.426Z,88
2019-02-27T04:55:24.365Z,88
2019-02-27T05:00:26.217Z,88
2019-02-27T05:05:24.403Z,88
2019-02-27T05:10:24.425Z,88
2019-02-27T05:15:24.451Z,88
2019-02-27T05:20:24.372Z,88
2019-02-27T05:25:24.399Z,88
2019-02-27T05:30:24.479Z,88
2019-02-27T05:35:24.490Z,87
2019-02-27T05:40:25.917Z,87
2019-02-27T05:45:24.472Z,88
2019-02-27T05:50:24.407Z,88
2019-02-27T05:55:24.424Z,87
2019-02-27T06:00:24.385Z,87
2019-02-27T06:05:24.467Z,87
2019-02-27T06:10:24.425Z,87
2019-02-27T06:15:25.977Z,87
2019-02-27T06:20:24.461Z,87
2019-02-27T06:25:24.425Z,87
2019-02-27T06:30:24.475Z,88
2019-02-27T06:35:24.433Z,88
2019-02-27T06:40:24.485Z,88
2019-02-27T06:45:24.473Z,88
2019-02-27T06:50:25.441Z,88
2019-02-27T06:55:25.375Z,88
2019-02-27T07:00:24.452Z,88
2019-02-27T07:05:24.408Z,88
2019-02-27T07:10:24.498Z,88
2019-02-27T07:15:24.458Z,88
2019-02-27T07:20:25.267Z,88
2019-02-27T07:25:24.507Z,88
2019-02-27T07:30:24.480Z,88
2019-02-27T07:35:26.288Z,86
2019-02-27T07:40:24.489Z,66
2019-02-27T07:45:24.466Z,48
2019-02-27T07:50:24.511Z,44
2019-02-27T07:55:27.695Z,41
2019-02-27T08:00:26.196Z,37
2019-02-27T08:05:27.877Z,33
2019-02-27T08:10:24.442Z,32
2019-02-27T08:15:25.449Z,31
2019-02-27T08:20:24.443Z,29
2019-02-27T08:25:24.490Z,27
2019-02-27T08:30:24.456Z,25
2019-02-27T08:35:24.513Z,24
2019-02-27T08:40:25.275Z,23
2019-02-27T08:45:27.035Z,21
2019-02-27T08:50:24.557Z,19
2019-02-27T08:55:24.507Z,19
2019-02-27T09:00:24.544Z,18
2019-02-27T09:05:24.577Z,18
2019-02-27T09:10:26.297Z,18
2019-02-27T09:15:24.553Z,17
2019-02-27T09:20:24.508Z,16
2019-02-27T09:25:24.921Z,15
2019-02-27T09:30:28.666Z,16
2019-02-27T09:35:24.565Z,15
2019-02-27T09:40:24.517Z,15
2019-02-27T09:45:24.495Z,13
2019-02-27T09:50:24.516Z,13
2019-02-27T09:55:24.592Z,13
2019-02-27T10:00:26.578Z,13
2019-02-27T10:05:24.546Z,12
2019-02-27T10:10:24.506Z,11
2019-02-27T10:15:25.118Z,10
2019-02-27T10:20:24.536Z,11
2019-02-27T10:25:24.577Z,10
2019-02-27T10:30:24.585Z,11
2019-02-27T10:35:26.770Z,11
2019-02-27T10:40:24.589Z,11
2019-02-27T10:45:24.552Z,10
2019-02-27T10:50:24.565Z,10
2019-02-27T10:55:26.631Z,10
2019-02-27T11:00:25.063Z,10
2019-02-27T11:05:24.609Z,10
2019-02-27T11:10:24.563Z,10
2019-02-27T11:15:24.609Z,11
2019-02-27T11:20:24.842Z,11
2019-02-27T11:25:24.605Z,12
2019-02-27T11:30:24.585Z,11
2019-02-27T11:35:25.018Z,12
2019-02-27T11:40:24.632Z,12
2019-02-27T11:45:24.917Z,12
2019-02-27T11:50:24.622Z,12
2019-02-27T11:55:24.702Z,13
2019-02-27T12:00:24.671Z,13
2019-02-27T12:05:24.596Z,13
2019-02-27T12:10:24.593Z,13
2019-02-27T12:15:24.645Z,12
2019-02-27T12:20:24.593Z,13
2019-02-27T12:25:27.806Z,14
2019-02-27T12:30:24.614Z,13
2019-02-27T12:35:24.569Z,13
2019-02-27T12:40:25.197Z,14
2019-02-27T12:45:25.693Z,17
2019-02-27T12:50:26.543Z,19
2019-02-27T12:55:24.655Z,20
2019-02-27T13:00:24.625Z,21
2019-02-27T13:05:27.244Z,22
2019-02-27T13:10:24.616Z,23
2019-02-27T13:15:24.583Z,23
2019-02-27T13:20:24.666Z,23
2019-02-27T13:25:24.893Z,24
2019-02-27T13:30:24.638Z,24
2019-02-27T13:35:24.682Z,25
2019-02-27T13:40:24.677Z,25
2019-02-27T13:45:24.648Z,26
2019-02-27T13:50:26.769Z,26
2019-02-27T13:55:24.654Z,26
2019-02-27T14:00:25.732Z,26
2019-02-27T14:05:24.648Z,27
2019-02-27T14:10:24.654Z,27
2019-02-27T14:15:27.180Z,27
2019-02-27T14:20:26.843Z,27
2019-02-27T14:25:27.980Z,27
2019-02-27T14:30:24.701Z,26
2019-02-27T14:35:25.218Z,26
2019-02-27T14:40:24.684Z,26
2019-02-27T14:45:24.678Z,26
2019-02-27T14:50:24.662Z,26
2019-02-27T14:55:24.722Z,26
2019-02-27T15:00:24.791Z,26
2019-02-27T15:05:24.643Z,26
2019-02-27T15:10:24.691Z,26
2019-02-27T15:15:24.718Z,27
2019-02-27T15:20:24.680Z,27
2019-02-27T15:25:24.815Z,27
2019-02-27T15:30:24.735Z,27
2019-02-27T15:35:24.712Z,27
2019-02-27T15:40:28.283Z,27
2019-02-27T15:45:24.693Z,27
2019-02-27T15:50:24.746Z,27
2019-02-27T15:55:24.703Z,27
2019-02-27T16:00:24.722Z,26
2019-02-27T16:05:29.830Z,26
2019-02-27T16:10:24.672Z,27
2019-02-27T16:15:24.753Z,27
2019-02-27T16:20:24.753Z,27
2019-02-27T16:25:24.733Z,27
2019-02-27T16:30:24.757Z,27
2019-02-27T16:35:24.721Z,27
2019-02-27T16:40:24.756Z,27
2019-02-27T16:45:24.772Z,28
2019-02-27T16:50:26.417Z,28
2019-02-27T16:55:24.730Z,28
2019-02-27T17:00:24.745Z,29
2019-02-27T17:05:24.773Z,30
2019-02-27T17:10:24.782Z,31
2019-02-27T17:15:24.787Z,31
2019-02-27T17:20:24.742Z,32
2019-02-27T17:25:28.568Z,32
2019-02-27T17:30:24.715Z,32
2019-02-27T17:35:24.752Z,32
2019-02-27T17:40:24.790Z,33
2019-02-27T17:45:24.716Z,34
2019-02-27T17:50:24.763Z,34
2019-02-27T17:55:24.716Z,34
2019-02-27T18:00:24.875Z,35
2019-02-27T18:05:25.281Z,35
2019-02-27T18:10:24.773Z,36
2019-02-27T18:15:24.766Z,36
2019-02-27T18:20:25.774Z,36
2019-02-27T18:25:24.812Z,37
2019-02-27T18:30:24.766Z,38
2019-02-27T18:35:28.425Z,38
2019-02-27T18:40:24.774Z,38
2019-02-27T18:45:24.773Z,38
2019-02-27T18:50:25.659Z,38
2019-02-27T18:55:29.188Z,38
2019-02-27T19:00:24.802Z,37
2019-02-27T19:05:24.800Z,38
2019-02-27T19:10:24.788Z,38
2019-02-27T19:15:24.790Z,38
2019-02-27T19:20:25.201Z,39
2019-02-27T19:25:24.850Z,39
2019-02-27T19:30:24.842Z,39
2019-02-27T19:35:24.797Z,39
2019-02-27T19:40:29.741Z,39
2019-02-27T19:45:24.857Z,40
2019-02-27T19:50:24.831Z,40
2019-02-27T19:55:27.212Z,40
2019-02-27T20:00:24.783Z,40
2019-02-27T20:05:24.867Z,41
2019-02-27T20:10:28.805Z,42
2019-02-27T20:15:24.831Z,42
2019-02-27T20:20:24.881Z,41
2019-02-27T20:25:24.829Z,42
2019-02-27T20:30:24.829Z,42
2019-02-27T20:35:24.800Z,42
2019-02-27T20:40:24.877Z,42
2019-02-27T20:45:26.572Z,43
2019-02-27T20:50:34.418Z,43
2019-02-27T20:55:24.870Z,44
2019-02-27T21:00:24.841Z,44
2019-02-27T21:05:24.894Z,46
2019-02-27T21:10:24.882Z,46
2019-02-27T21:15:25.037Z,47
2019-02-27T21:20:24.808Z,47
2019-02-27T21:25:24.867Z,47
2019-02-27T21:30:24.858Z,48
2019-02-27T21:35:28.531Z,48
2019-02-27T21:40:24.864Z,49
2019-02-27T21:45:24.831Z,50
2019-02-27T21:50:24.918Z,51
2019-02-27T21:55:24.863Z,51
2019-02-27T22:00:24.868Z,51
2019-02-27T22:05:24.916Z,53
2019-02-27T22:10:24.846Z,53
2019-02-27T22:15:24.927Z,53
2019-02-27T22:20:25.768Z,54
2019-02-27T22:25:29.758Z,54
2019-02-27T22:30:24.921Z,55
2019-02-27T22:35:24.891Z,55
2019-02-27T22:40:24.884Z,56
2019-02-27T22:45:24.914Z,57
2019-02-27T22:50:24.890Z,57
2019-02-27T22:55:24.933Z,58
2019-02-27T23:00:24.925Z,60
2019-02-27T23:05:24.952Z,61
2019-02-27T23:10:24.936Z,61
2019-02-27T23:15:25.445Z,61
2019-02-27T23:20:24.951Z,62
2019-02-27T23:25:24.956Z,63
2019-02-27T23:30:24.908Z,64
2019-02-27T23:35:24.920Z,65
2019-02-27T23:40:24.936Z,65
2019-02-27T23:45:24.920Z,68
2019-02-27T23:50:24.923Z,68
2019-02-27T23:55:24.958Z,69
